Time;durP1;ratioP1;P1;durP2;ratioP2;P2;SDS_P1;SDS_P2;PMS_P1;PMS_P2;Temp;Humidity;BMP_temperature;BMP_pressure;BME280_temperature;BME280_humidity;BME280_pressure;Samples;Min_cycle;Max_cycle;Signal;HPM_P1;HPM_P2
2022/01/16 00:01:19;;;;;;;8.70;1.67;;;-1.60;99.90;;;;;;5035703;28;20802;-85
2022/01/16 00:06:20;;;;;;;7.35;1.58;;;-1.60;99.90;;;;;;5073749;28;20872;-86
2022/01/16 00:08:48;;;;;;;8.13;1.55;;;-1.50;99.90;;;;;;5051394;28;20404;-85
2022/01/16 00:11:15;;;;;;;9.07;1.53;;;-1.60;99.90;;;;;;5035976;28;20431;-85
2022/01/16 00:13:43;;;;;;;6.55;1.33;;;-1.60;99.90;;;;;;5035855;28;20798;-85
2022/01/16 00:16:16;;;;;;;10.88;1.52;;;-1.50;99.90;;;;;;5037343;28;20888;-84
2022/01/16 00:18:52;;;;;;;10.68;1.50;;;-1.50;99.90;;;;;;5053645;28;20486;-87
2022/01/16 00:21:28;;;;;;;6.70;1.10;;;-1.50;99.90;;;;;;5053510;28;20413;-86
2022/01/16 00:23:55;;;;;;;7.20;1.25;;;-1.40;99.90;;;;;;5031934;28;20484;-86
2022/01/16 00:26:23;;;;;;;7.27;1.00;;;-1.50;99.90;;;;;;5055959;28;20888;-86
2022/01/16 00:28:51;;;;;;;6.68;1.30;;;-1.40;99.90;;;;;;5055510;28;20393;-86
2022/01/16 00:31:20;;;;;;;9.57;1.55;;;-1.40;99.90;;;;;;5055667;28;20455;-86
2022/01/16 00:33:49;;;;;;;5.38;1.08;;;-1.40;99.90;;;;;;5055807;28;20764;-86
2022/01/16 00:36:19;;;;;;;7.15;1.23;;;-1.40;99.90;;;;;;5055427;28;20429;-86
2022/01/16 00:38:52;;;;;;;6.88;0.85;;;-1.30;99.90;;;;;;5055315;28;20400;-87
2022/01/16 00:41:21;;;;;;;8.23;1.43;;;-1.30;99.90;;;;;;5073481;28;20390;-87
2022/01/16 00:43:50;;;;;;;6.53;1.25;;;-1.30;99.90;;;;;;5055340;28;20390;-87
2022/01/16 00:46:18;;;;;;;8.63;1.10;;;-1.30;99.90;;;;;;5055020;28;20876;-86
2022/01/16 00:48:46;;;;;;;8.30;1.38;;;-1.30;99.90;;;;;;5038590;28;20402;-88
2022/01/16 00:51:15;;;;;;;8.00;1.20;;;-1.40;99.90;;;;;;5054929;28;20478;-85
2022/01/16 00:53:44;;;;;;;7.53;1.40;;;-1.30;99.90;;;;;;5038380;28;20974;-87
2022/01/16 00:56:13;;;;;;;6.57;1.10;;;-1.30;99.90;;;;;;5055420;28;20436;-87
2022/01/16 00:58:41;;;;;;;8.13;1.10;;;-1.30;99.90;;;;;;5038415;28;20424;-85
2022/01/16 01:01:09;;;;;;;6.78;1.20;;;-1.30;99.90;;;;;;5055090;28;20390;-86
2022/01/16 01:03:37;;;;;;;6.43;1.20;;;-1.30;99.90;;;;;;5054680;28;20398;-86
2022/01/16 01:06:06;;;;;;;6.65;1.10;;;-1.30;99.90;;;;;;5035984;28;20404;-85
2022/01/16 01:08:34;;;;;;;7.80;1.20;;;-1.30;99.90;;;;;;5054478;28;20894;-85
2022/01/16 01:11:06;;;;;;;7.57;1.38;;;-1.30;99.90;;;;;;5050750;28;20765;-86
2022/01/16 01:13:54;;;;;;;6.07;1.05;;;-1.30;99.90;;;;;;5034662;28;20878;-86
2022/01/16 01:16:21;;;;;;;7.17;1.00;;;-1.30;99.90;;;;;;5051268;28;20400;-86
2022/01/16 01:18:49;;;;;;;9.40;1.20;;;-1.30;99.90;;;;;;5054310;28;20488;-86
2022/01/16 01:21:27;;;;;;;6.47;0.97;;;-1.30;99.90;;;;;;5037889;28;20425;-86
2022/01/16 01:23:57;;;;;;;5.72;1.10;;;-1.20;99.90;;;;;;5054492;28;20409;-86
2022/01/16 01:26:30;;;;;;;6.72;1.15;;;-1.30;99.90;;;;;;5054572;28;20404;-87
2022/01/16 01:28:57;;;;;;;7.25;1.00;;;-1.30;99.90;;;;;;5025845;28;20405;-86
2022/01/16 01:31:26;;;;;;;6.07;1.10;;;-1.20;99.90;;;;;;5035864;28;20398;-85
2022/01/16 01:33:54;;;;;;;5.20;1.10;;;-1.30;99.90;;;;;;5034851;28;20454;-87
2022/01/16 01:36:21;;;;;;;4.43;0.90;;;-1.30;99.90;;;;;;5054124;28;20895;-85
2022/01/16 01:38:49;;;;;;;6.95;1.15;;;-1.30;99.90;;;;;;5037797;28;20386;-85
2022/01/16 01:41:19;;;;;;;7.22;1.10;;;-1.30;99.90;;;;;;5072072;28;20391;-86
2022/01/16 01:52:05;;;;;;;4.17;1.47;;;-1.20;99.90;;;;;;5033778;28;20486;-87
2022/01/16 01:54:33;;;;;;;7.45;1.40;;;-1.30;99.90;;;;;;5037592;28;20471;-85
2022/01/16 01:57:01;;;;;;;8.20;1.20;;;-1.20;99.90;;;;;;5071936;28;20392;-85
2022/01/16 01:59:28;;;;;;;8.00;1.55;;;-1.20;99.90;;;;;;5052375;28;20394;-86
2022/01/16 02:01:56;;;;;;;7.82;1.42;;;-1.30;99.90;;;;;;5037236;28;20472;-86
2022/01/16 02:04:23;;;;;;;10.07;1.65;;;-1.30;99.90;;;;;;5071568;28;20390;-86
2022/01/16 02:06:51;;;;;;;8.38;1.90;;;-1.40;99.90;;;;;;5036900;28;20402;-85
2022/01/16 02:09:20;;;;;;;9.07;1.80;;;-1.40;99.90;;;;;;5033734;28;20893;-86
2022/01/16 02:11:48;;;;;;;5.78;2.20;;;-1.40;99.90;;;;;;5017289;28;20498;-86
2022/01/16 02:28:29;;;;;;;9.95;2.47;;;-1.30;99.90;;;;;;5037801;28;20426;-86
2022/01/16 02:31:18;;;;;;;7.90;2.38;;;-1.20;99.90;;;;;;5055440;28;20894;-86
2022/01/16 02:38:49;;;;;;;9.18;2.20;;;-1.30;99.90;;;;;;5037482;28;20392;-86
2022/01/16 02:41:16;;;;;;;8.63;2.58;;;-1.30;99.90;;;;;;5055317;28;20426;-86
2022/01/16 02:43:50;;;;;;;10.50;2.80;;;-1.40;99.90;;;;;;5037569;28;20423;-86
2022/01/16 02:48:49;;;;;;;9.50;2.30;;;-1.50;99.90;;;;;;5036903;28;20761;-86
2022/01/16 02:51:19;;;;;;;9.93;2.50;;;-1.60;99.90;;;;;;5044085;28;20492;-85
2022/01/16 02:53:47;;;;;;;7.55;2.50;;;-1.50;99.90;;;;;;5040649;28;20821;-86
2022/01/16 02:56:16;;;;;;;11.57;2.72;;;-1.50;99.90;;;;;;5040815;28;20405;-87
2022/01/16 02:58:45;;;;;;;8.52;2.50;;;-1.60;99.90;;;;;;5057046;28;20430;-88
2022/01/16 03:01:13;;;;;;;8.57;2.38;;;-1.80;99.90;;;;;;5057278;28;20401;-86
2022/01/16 03:03:42;;;;;;;9.95;2.72;;;-1.80;99.90;;;;;;5057004;28;20389;-86
2022/01/16 03:06:10;;;;;;;8.20;2.73;;;-1.80;99.90;;;;;;5057288;28;20390;-85
2022/01/16 03:08:38;;;;;;;8.77;2.60;;;-1.80;99.90;;;;;;5056830;28;20472;-85
2022/01/16 03:13:49;;;;;;;10.60;2.60;;;-2.00;99.90;;;;;;5074711;28;20420;-87
2022/01/16 03:16:21;;;;;;;8.77;2.40;;;-1.90;99.90;;;;;;5040665;28;20425;-86
2022/01/16 03:21:54;;;;;;;7.27;2.47;;;-2.10;99.90;;;;;;5056671;28;20386;-86
2022/01/16 03:24:25;;;;;;;10.38;2.50;;;-2.10;99.90;;;;;;5040655;28;20386;-86
2022/01/16 03:26:57;;;;;;;8.32;2.60;;;-2.10;99.90;;;;;;5040140;28;20390;-87
2022/01/16 03:29:26;;;;;;;10.18;2.25;;;-2.00;99.90;;;;;;5040239;28;20443;-86
2022/01/16 03:31:55;;;;;;;9.80;2.40;;;-2.00;99.90;;;;;;5040570;28;20398;-86
2022/01/16 03:34:23;;;;;;;7.80;2.20;;;-2.00;99.90;;;;;;5055040;28;20386;-85
2022/01/16 03:36:50;;;;;;;9.93;2.30;;;-2.00;99.90;;;;;;5036427;28;20438;-86
2022/01/16 03:39:19;;;;;;;7.78;2.03;;;-2.10;99.90;;;;;;5036310;28;20388;-86
2022/01/16 03:41:47;;;;;;;6.25;1.90;;;-2.00;99.90;;;;;;5054449;28;20383;-86
2022/01/16 03:44:15;;;;;;;9.73;2.03;;;-2.10;99.90;;;;;;5053243;28;20755;-86
2022/01/16 03:46:44;;;;;;;9.60;2.10;;;-2.10;99.90;;;;;;5036321;28;20782;-85
2022/01/16 03:49:14;;;;;;;7.70;1.85;;;-2.10;99.90;;;;;;5032632;28;20769;-86
2022/01/16 03:51:44;;;;;;;8.60;2.08;;;-2.10;99.90;;;;;;5042311;28;20475;-86
2022/01/16 03:54:15;;;;;;;8.82;1.92;;;-2.10;99.90;;;;;;5036220;28;20898;-86
2022/01/16 03:56:44;;;;;;;7.63;1.73;;;-2.10;99.90;;;;;;5050951;28;20813;-87
2022/01/16 03:59:12;;;;;;;7.78;1.92;;;-2.20;99.90;;;;;;5043139;28;20436;-84
2022/01/16 04:01:40;;;;;;;10.52;2.50;;;-2.20;99.90;;;;;;5027240;28;20492;-85
2022/01/16 04:04:07;;;;;;;6.80;2.22;;;-2.20;99.90;;;;;;5052502;28;20392;-85
2022/01/16 04:06:35;;;;;;;9.57;2.38;;;-2.20;99.90;;;;;;5046477;28;20488;-85
2022/01/16 04:09:04;;;;;;;10.45;2.53;;;-2.20;99.90;;;;;;5033875;28;20393;-85
2022/01/16 04:11:32;;;;;;;9.88;2.22;;;-2.20;99.90;;;;;;5032424;28;20405;-85
2022/01/16 04:14:07;;;;;;;10.25;2.67;;;-2.10;99.90;;;;;;5032224;28;20893;-85
2022/01/16 04:16:36;;;;;;;8.68;2.05;;;-2.10;99.90;;;;;;5033603;28;20402;-86
2022/01/16 04:19:04;;;;;;;7.53;1.87;;;-2.10;99.90;;;;;;5045239;28;20489;-85
2022/01/16 04:21:32;;;;;;;10.63;2.63;;;-2.20;99.90;;;;;;5048585;28;20424;-85
2022/01/16 04:24:00;;;;;;;11.13;2.63;;;-2.10;99.90;;;;;;5032599;28;20954;-86
2022/01/16 04:26:27;;;;;;;8.05;2.33;;;-2.10;99.90;;;;;;5032752;28;20393;-87
2022/01/16 04:28:56;;;;;;;7.15;2.25;;;-2.10;99.90;;;;;;5035804;28;20909;-87
2022/01/16 04:31:23;;;;;;;10.03;2.20;;;-2.10;99.90;;;;;;5053537;28;20904;-86
2022/01/16 04:33:51;;;;;;;7.68;2.30;;;-2.10;99.90;;;;;;5052076;28;20481;-85
2022/01/16 04:36:18;;;;;;;9.63;2.50;;;-2.10;99.90;;;;;;5048820;28;20393;-86
2022/01/16 04:38:48;;;;;;;6.97;2.00;;;-2.10;99.90;;;;;;5015582;28;20401;-86
2022/01/16 04:44:05;;;;;;;10.07;2.30;;;-2.10;99.90;;;;;;5031997;28;20398;-86
2022/01/16 04:46:33;;;;;;;7.90;2.22;;;-2.00;99.90;;;;;;5014969;28;20476;-86
2022/01/16 04:49:03;;;;;;;9.73;2.43;;;-2.00;99.90;;;;;;5031831;28;20425;-87
2022/01/16 04:51:31;;;;;;;10.10;2.33;;;-2.00;99.90;;;;;;5031681;28;20429;-86
2022/01/16 04:53:59;;;;;;;7.35;1.90;;;-2.00;99.90;;;;;;5031523;28;20393;-85
2022/01/16 04:56:27;;;;;;;6.43;1.95;;;-2.00;99.90;;;;;;5031518;28;20390;-85
2022/01/16 04:58:55;;;;;;;8.87;2.10;;;-2.10;99.90;;;;;;5031686;28;20420;-85
2022/01/16 05:01:23;;;;;;;10.38;2.30;;;-2.10;99.90;;;;;;5031702;28;20400;-86
2022/01/16 05:03:52;;;;;;;9.80;2.20;;;-2.00;99.90;;;;;;5031643;28;20455;-87
2022/01/16 05:06:20;;;;;;;9.30;2.20;;;-2.00;99.90;;;;;;5032761;28;20385;-87
2022/01/16 05:08:47;;;;;;;11.02;2.33;;;-2.00;99.90;;;;;;5015395;28;20405;-86
2022/01/16 05:11:20;;;;;;;8.68;1.85;;;-2.00;99.90;;;;;;5031642;28;20965;-86
2022/01/16 05:16:36;;;;;;;8.93;1.90;;;-2.00;99.90;;;;;;5031696;28;20385;-87
2022/01/16 05:19:10;;;;;;;7.13;1.90;;;-2.10;99.90;;;;;;5031219;28;20394;-86
2022/01/16 05:21:39;;;;;;;7.07;2.00;;;-2.10;99.90;;;;;;5042257;28;20502;-86
2022/01/16 05:24:11;;;;;;;8.07;1.80;;;-2.10;99.90;;;;;;5051249;28;20715;-86
2022/01/16 05:26:41;;;;;;;9.52;2.30;;;-2.10;99.90;;;;;;5035140;28;20407;-86
2022/01/16 05:29:12;;;;;;;9.32;2.17;;;-2.10;99.90;;;;;;5034743;28;20838;-86
2022/01/16 05:31:47;;;;;;;8.68;2.00;;;-2.10;99.90;;;;;;5034394;28;20404;-86
2022/01/16 05:34:19;;;;;;;8.75;2.20;;;-2.10;99.90;;;;;;5047776;28;20471;-86
2022/01/16 05:36:47;;;;;;;7.70;1.80;;;-2.00;99.90;;;;;;5031141;28;20417;-86
2022/01/16 05:39:14;;;;;;;7.75;1.83;;;-2.00;99.90;;;;;;5031123;28;20451;-86
2022/01/16 05:41:42;;;;;;;8.47;1.87;;;-2.10;99.90;;;;;;5031228;28;20393;-87
2022/01/16 05:44:09;;;;;;;7.70;2.05;;;-2.10;99.90;;;;;;5031239;28;20401;-87
2022/01/16 05:46:37;;;;;;;9.38;2.25;;;-2.10;99.90;;;;;;5032008;28;20450;-86
2022/01/16 05:49:04;;;;;;;8.98;1.73;;;-2.10;99.90;;;;;;5030528;28;20757;-86
2022/01/16 05:51:32;;;;;;;7.57;1.77;;;-2.00;99.90;;;;;;5014402;28;20405;-86
2022/01/16 05:53:59;;;;;;;6.72;1.73;;;-2.00;99.90;;;;;;5031956;28;20381;-86
2022/01/16 05:56:27;;;;;;;6.88;2.00;;;-2.00;99.90;;;;;;5014256;28;20401;-86
2022/01/16 05:58:55;;;;;;;6.22;1.88;;;-2.00;99.90;;;;;;5013605;28;20413;-86
2022/01/16 06:01:22;;;;;;;9.95;2.28;;;-2.00;99.90;;;;;;5014357;28;20763;-87
2022/01/16 06:03:50;;;;;;;9.65;2.28;;;-2.00;99.90;;;;;;5014343;28;20751;-86
2022/01/16 06:06:17;;;;;;;8.32;1.98;;;-2.00;99.90;;;;;;5014627;28;20404;-86
2022/01/16 06:08:45;;;;;;;11.07;2.28;;;-2.00;99.90;;;;;;5014205;28;20416;-85
2022/01/16 06:11:13;;;;;;;8.02;1.73;;;-2.00;99.90;;;;;;5014206;28;20394;-86
2022/01/16 06:13:40;;;;;;;9.15;1.90;;;-2.00;99.90;;;;;;5014180;28;20394;-87
2022/01/16 06:16:08;;;;;;;7.67;1.80;;;-1.90;99.90;;;;;;5046086;28;20480;-86
2022/01/16 06:18:35;;;;;;;7.80;1.70;;;-1.90;99.90;;;;;;5030235;28;20488;-85
2022/01/16 06:21:03;;;;;;;8.65;2.00;;;-1.90;99.90;;;;;;5030393;28;20408;-85
2022/01/16 06:23:31;;;;;;;6.35;1.70;;;-1.90;99.90;;;;;;5031595;28;20392;-85
2022/01/16 06:25:58;;;;;;;5.82;1.65;;;-1.90;99.90;;;;;;5050273;28;20426;-86
2022/01/16 06:28:28;;;;;;;5.73;1.80;;;-1.80;99.90;;;;;;5050334;28;20812;-87
2022/01/16 06:30:55;;;;;;;7.13;1.90;;;-1.90;99.90;;;;;;5050251;28;20426;-86
2022/01/16 06:33:24;;;;;;;7.03;1.90;;;-1.90;99.90;;;;;;5031934;28;20449;-86
2022/01/16 06:35:51;;;;;;;9.50;2.00;;;-1.90;99.90;;;;;;5050504;28;20808;-86
2022/01/16 06:38:19;;;;;;;9.98;2.13;;;-1.90;99.90;;;;;;5034246;28;20427;-86
2022/01/16 06:40:46;;;;;;;7.00;1.57;;;-1.90;99.90;;;;;;5046864;28;20432;-85
2022/01/16 06:43:14;;;;;;;10.88;2.00;;;-1.90;99.90;;;;;;5015055;28;20447;-85
2022/01/16 06:45:41;;;;;;;7.78;2.00;;;-1.90;99.90;;;;;;5032383;28;20901;-87
2022/01/16 06:48:09;;;;;;;6.90;1.70;;;-1.90;99.90;;;;;;5050388;28;20407;-87
2022/01/16 06:50:37;;;;;;;7.32;1.70;;;-1.80;99.90;;;;;;5051442;28;20716;-86
2022/01/16 06:53:04;;;;;;;23.45;9.18;;;-1.90;99.90;;;;;;5050369;28;20770;-87
2022/01/16 06:55:32;;;;;;;13.82;4.68;;;-1.80;99.90;;;;;;5047088;28;20516;-86
2022/01/16 06:57:59;;;;;;;6.85;1.80;;;-1.80;99.90;;;;;;5014296;28;20467;-86
2022/01/16 07:00:26;;;;;;;7.23;1.70;;;-1.80;99.90;;;;;;5024090;28;20401;-86
2022/01/16 07:02:54;;;;;;;9.07;1.88;;;-1.80;99.90;;;;;;5032074;28;20428;-87
2022/01/16 07:05:22;;;;;;;8.23;1.73;;;-1.80;99.90;;;;;;5029496;28;20414;-87
2022/01/16 07:07:49;;;;;;;8.35;1.92;;;-1.80;99.90;;;;;;5042264;28;20407;-86
2022/01/16 07:10:17;;;;;;;7.88;1.70;;;-1.80;99.90;;;;;;5036458;28;20410;-87
2022/01/16 07:12:44;;;;;;;7.63;1.90;;;-1.80;99.90;;;;;;5054828;28;20399;-86
2022/01/16 07:15:12;;;;;;;9.00;2.40;;;-1.80;99.90;;;;;;5033131;28;20467;-86
2022/01/16 07:17:39;;;;;;;10.07;2.22;;;-1.90;99.90;;;;;;5017157;28;20969;-86
2022/01/16 07:20:11;;;;;;;13.20;2.38;;;-1.80;99.90;;;;;;5033577;28;20393;-86
2022/01/16 07:22:39;;;;;;;11.48;2.35;;;-1.90;99.90;;;;;;5042857;28;20445;-85
2022/01/16 07:25:07;;;;;;;11.35;2.20;;;-1.90;99.90;;;;;;5045700;28;20492;-86
2022/01/16 07:27:34;;;;;;;11.98;2.53;;;-1.90;99.90;;;;;;5033521;28;20426;-87
2022/01/16 07:30:03;;;;;;;8.10;2.30;;;-1.80;99.90;;;;;;5040870;28;20803;-86
2022/01/16 07:32:30;;;;;;;9.17;3.00;;;-1.90;99.90;;;;;;5017085;28;20918;-88
2022/01/16 07:34:58;;;;;;;9.75;3.10;;;-1.80;99.90;;;;;;5033478;28;20847;-87
2022/01/16 07:37:26;;;;;;;8.90;2.60;;;-1.80;99.90;;;;;;5043271;28;20750;-87
2022/01/16 07:39:53;;;;;;;8.70;2.47;;;-1.80;99.90;;;;;;5036556;28;20395;-87
2022/01/16 07:42:21;;;;;;;10.23;2.57;;;-1.80;99.90;;;;;;5054364;28;20873;-87
2022/01/16 07:44:50;;;;;;;9.57;2.47;;;-1.80;99.90;;;;;;5049790;28;20400;-87
2022/01/16 07:47:18;;;;;;;6.75;2.13;;;-1.80;99.90;;;;;;5034751;28;20390;-87
2022/01/16 07:49:45;;;;;;;10.18;2.50;;;-1.80;99.90;;;;;;5036571;28;20486;-87
2022/01/16 07:52:33;;;;;;;9.68;2.67;;;-1.80;99.90;;;;;;5022641;28;20400;-89
2022/01/16 07:55:01;;;;;;;8.93;2.70;;;-1.70;99.90;;;;;;5020177;28;20724;-88
2022/01/16 07:57:28;;;;;;;11.95;2.35;;;-1.70;99.90;;;;;;5020263;28;20917;-87
2022/01/16 07:59:56;;;;;;;9.00;2.30;;;-1.70;99.90;;;;;;5062560;28;20895;-87
2022/01/16 08:02:24;;;;;;;9.32;2.00;;;-1.70;99.90;;;;;;5056070;28;20394;-88
2022/01/16 08:04:51;;;;;;;8.80;2.10;;;-1.70;99.90;;;;;;5039516;28;20456;-88
2022/01/16 08:07:19;;;;;;;10.95;1.95;;;-1.60;99.90;;;;;;5054659;28;20386;-86
2022/01/16 08:09:47;;;;;;;9.55;2.35;;;-1.60;99.90;;;;;;5046840;28;20912;-86
2022/01/16 08:12:14;;;;;;;10.00;2.22;;;-1.60;99.90;;;;;;5038443;28;20436;-86
2022/01/16 08:14:42;;;;;;;11.23;2.55;;;-1.60;99.90;;;;;;5042185;28;20400;-86
2022/01/16 08:17:09;;;;;;;9.20;2.00;;;-1.50;99.90;;;;;;5056089;28;20390;-87
2022/01/16 08:19:37;;;;;;;8.93;2.15;;;-1.50;99.90;;;;;;5073617;28;20384;-87
2022/01/16 08:22:04;;;;;;;10.93;2.30;;;-1.50;99.90;;;;;;5038159;28;20390;-86
2022/01/16 08:24:32;;;;;;;8.07;1.92;;;-1.40;99.90;;;;;;5055850;28;20386;-86
2022/01/16 08:26:59;;;;;;;11.00;2.05;;;-1.40;99.90;;;;;;5039502;28;20449;-89
2022/01/16 08:29:27;;;;;;;12.77;2.88;;;-1.30;99.90;;;;;;5055859;28;20433;-86
2022/01/16 08:31:55;;;;;;;10.80;2.45;;;-1.30;99.90;;;;;;5037976;28;20743;-86
2022/01/16 08:34:22;;;;;;;10.60;2.30;;;-1.20;99.90;;;;;;5035458;28;20404;-86
2022/01/16 08:36:50;;;;;;;12.50;2.17;;;-1.20;99.90;;;;;;5035670;28;20387;-87
2022/01/16 08:39:19;;;;;;;11.38;2.28;;;-1.10;99.90;;;;;;5035785;28;20415;-87
2022/01/16 08:41:46;;;;;;;13.65;2.58;;;-1.10;99.90;;;;;;5035965;28;20424;-87
2022/01/16 08:44:14;;;;;;;12.88;2.50;;;-1.00;99.90;;;;;;5053471;28;20884;-87
2022/01/16 08:46:41;;;;;;;12.25;2.42;;;-1.00;99.90;;;;;;5020227;28;20400;-86
2022/01/16 08:49:09;;;;;;;12.88;2.58;;;-1.00;99.90;;;;;;5024310;28;20390;-86
2022/01/16 08:51:37;;;;;;;11.82;2.65;;;-0.90;99.90;;;;;;5034901;28;20512;-86
2022/01/16 08:54:04;;;;;;;10.85;2.38;;;-0.90;99.90;;;;;;5035224;28;20927;-86
2022/01/16 08:56:32;;;;;;;10.70;2.40;;;-0.80;99.90;;;;;;5049189;28;20402;-86
2022/01/16 08:59:00;;;;;;;14.63;2.67;;;-0.80;99.90;;;;;;5038225;28;20392;-86
2022/01/16 09:01:27;;;;;;;13.55;2.65;;;-0.70;99.90;;;;;;5032932;28;20426;-86
2022/01/16 09:03:55;;;;;;;14.68;2.50;;;-0.70;99.90;;;;;;5034930;28;20400;-86
2022/01/16 09:06:23;;;;;;;14.65;2.85;;;-0.70;99.90;;;;;;5040461;28;20435;-84
2022/01/16 09:08:50;;;;;;;12.32;2.85;;;-0.70;99.90;;;;;;5033474;28;20395;-87
2022/01/16 09:11:22;;;;;;;12.67;2.63;;;-0.70;99.90;;;;;;5034314;28;20404;-88
2022/01/16 09:13:50;;;;;;;13.52;2.65;;;-0.70;99.90;;;;;;5042103;28;20467;-86
2022/01/16 09:16:18;;;;;;;10.75;2.42;;;-0.60;99.90;;;;;;5051451;28;20379;-86
2022/01/16 09:18:47;;;;;;;14.27;2.50;;;-0.60;99.90;;;;;;5054518;28;20408;-86
2022/01/16 09:21:16;;;;;;;10.18;2.42;;;-0.60;99.90;;;;;;5034985;28;20388;-87
2022/01/16 09:23:45;;;;;;;14.50;3.00;;;-0.60;99.90;;;;;;5018276;28;20403;-87
2022/01/16 09:26:14;;;;;;;14.10;3.05;;;-0.50;99.90;;;;;;5054734;28;20386;-86
2022/01/16 09:28:42;;;;;;;14.40;2.72;;;-0.60;99.90;;;;;;5054477;28;20494;-86
2022/01/16 09:31:10;;;;;;;13.55;2.88;;;-0.50;99.90;;;;;;5071053;28;20512;-86
2022/01/16 09:33:38;;;;;;;12.50;2.70;;;-0.50;99.90;;;;;;5043948;28;20404;-87
2022/01/16 09:36:08;;;;;;;16.02;2.67;;;-0.50;99.90;;;;;;5034813;28;20432;-88
2022/01/16 09:38:37;;;;;;;13.57;2.45;;;-0.50;99.90;;;;;;5053221;28;20443;-88
2022/01/16 09:41:07;;;;;;;13.55;2.70;;;-0.50;99.90;;;;;;5070410;28;20443;-87
2022/01/16 09:43:35;;;;;;;14.85;3.20;;;-0.50;99.90;;;;;;5054084;28;20416;-87
2022/01/16 09:46:03;;;;;;;10.80;2.35;;;-0.50;99.90;;;;;;5053685;28;20863;-87
2022/01/16 09:48:31;;;;;;;17.05;3.10;;;-0.50;99.90;;;;;;5033809;28;20901;-88
2022/01/16 09:51:00;;;;;;;16.00;3.10;;;-0.50;99.90;;;;;;5050193;28;20431;-88
2022/01/16 09:53:28;;;;;;;14.48;2.78;;;-0.50;99.90;;;;;;5049918;28;20469;-88
2022/01/16 09:55:56;;;;;;;17.23;3.33;;;-0.50;99.90;;;;;;5031105;28;20440;-87
2022/01/16 09:58:24;;;;;;;12.52;2.65;;;-0.50;99.90;;;;;;5050856;28;20392;-86
2022/01/16 10:00:52;;;;;;;12.52;2.67;;;-0.40;99.90;;;;;;5015169;28;20453;-87
2022/01/16 10:03:41;;;;;;;12.15;3.03;;;-0.50;99.90;;;;;;5044906;28;20400;-88
2022/01/16 10:06:14;;;;;;;17.10;3.03;;;-0.40;99.90;;;;;;5049638;28;20400;-87
2022/01/16 10:08:43;;;;;;;13.38;2.72;;;-0.40;99.90;;;;;;5050731;28;20882;-88
2022/01/16 10:11:39;;;;;;;14.85;3.40;;;-0.40;99.90;;;;;;5051051;28;20383;-87
2022/01/16 10:14:45;;;;;;;13.80;3.15;;;-0.40;99.90;;;;;;5036179;28;20396;-88
2022/01/16 10:17:22;;;;;;;11.57;2.70;;;-0.40;99.90;;;;;;5051808;28;20380;-86
2022/01/16 10:20:04;;;;;;;15.68;3.20;;;-0.40;99.90;;;;;;5050643;28;20407;-86
2022/01/16 10:22:40;;;;;;;12.00;3.10;;;-0.30;99.90;;;;;;5027306;28;20445;-88
2022/01/16 10:25:09;;;;;;;17.25;3.58;;;-0.30;99.90;;;;;;5014818;28;20487;-86
2022/01/16 10:27:39;;;;;;;14.80;3.10;;;-0.30;99.90;;;;;;5014478;28;20471;-86
2022/01/16 10:30:09;;;;;;;14.63;3.35;;;-0.20;99.90;;;;;;5032087;28;20413;-86
2022/01/16 10:32:38;;;;;;;15.63;3.00;;;-0.20;99.90;;;;;;5046825;28;20409;-85
2022/01/16 10:35:22;;;;;;;11.05;2.78;;;-0.20;99.90;;;;;;5030394;28;20418;-85
2022/01/16 10:37:54;;;;;;;11.98;2.72;;;-0.20;99.90;;;;;;5039448;28;20414;-85
2022/01/16 10:40:30;;;;;;;15.82;3.40;;;-0.10;99.90;;;;;;5031641;28;20385;-84
2022/01/16 10:43:03;;;;;;;14.77;3.35;;;-0.10;99.90;;;;;;5039190;28;20402;-85
2022/01/16 10:45:33;;;;;;;14.00;3.60;;;-0.10;99.90;;;;;;5053974;28;20391;-85
2022/01/16 10:48:03;;;;;;;15.10;3.90;;;-0.10;99.90;;;;;;5053696;28;20482;-86
2022/01/16 10:50:31;;;;;;;11.30;2.95;;;-0.10;99.90;;;;;;5051212;28;20385;-85
2022/01/16 10:53:03;;;;;;;12.82;3.20;;;-0.10;99.90;;;;;;5043244;28;20414;-87
2022/01/16 10:55:47;;;;;;;15.77;3.42;;;-0.10;99.90;;;;;;5037928;28;20400;-87
2022/01/16 10:58:20;;;;;;;16.03;3.13;;;0.00;99.90;;;;;;5052565;28;20395;-87
2022/01/16 11:00:59;;;;;;;12.88;2.72;;;0.00;99.90;;;;;;5018080;28;20733;-86
2022/01/16 11:03:29;;;;;;;12.77;3.00;;;0.00;99.90;;;;;;5034169;28;20763;-86
2022/01/16 11:05:57;;;;;;;16.97;3.07;;;0.10;99.90;;;;;;5052671;28;20418;-87
2022/01/16 11:08:27;;;;;;;15.07;3.40;;;0.10;99.90;;;;;;5054017;28;20408;-85
2022/01/16 11:10:56;;;;;;;14.00;3.45;;;0.10;99.90;;;;;;5052957;28;20411;-86
2022/01/16 11:13:34;;;;;;;16.70;3.40;;;0.10;99.90;;;;;;5053138;28;20407;-85
2022/01/16 11:16:04;;;;;;;16.05;3.38;;;0.10;99.90;;;;;;5040670;28;20432;-86
2022/01/16 11:18:38;;;;;;;14.52;3.10;;;0.10;99.90;;;;;;5046178;28;20736;-84
2022/01/16 11:23:59;;;;;;;12.50;3.28;;;0.10;99.90;;;;;;5050601;28;20422;-86
2022/01/16 11:26:27;;;;;;;11.83;3.33;;;0.10;99.90;;;;;;5053437;28;20380;-87
2022/01/16 11:28:57;;;;;;;14.43;3.67;;;0.10;99.90;;;;;;5036844;28;20400;-86
2022/01/16 11:31:24;;;;;;;12.48;4.07;;;0.10;99.90;;;;;;5053528;28;20825;-85
2022/01/16 11:33:52;;;;;;;15.63;4.17;;;0.10;99.90;;;;;;5036799;28;20400;-86
2022/01/16 11:36:22;;;;;;;16.83;4.03;;;0.10;99.90;;;;;;5053415;28;20418;-87
2022/01/16 11:39:01;;;;;;;14.60;4.22;;;0.00;99.90;;;;;;5036893;28;20762;-87
2022/01/16 11:41:37;;;;;;;14.38;4.07;;;0.00;99.90;;;;;;5052898;28;20395;-87
2022/01/16 11:44:21;;;;;;;15.00;3.70;;;0.00;99.90;;;;;;5054205;28;20418;-87
2022/01/16 11:46:51;;;;;;;12.18;3.85;;;0.00;99.90;;;;;;5036756;28;20414;-85
2022/01/16 11:49:32;;;;;;;13.00;3.97;;;0.00;99.90;;;;;;5035260;28;20412;-87
2022/01/16 11:52:12;;;;;;;15.43;4.22;;;0.00;99.90;;;;;;5032876;28;20453;-86
2022/01/16 11:54:42;;;;;;;14.07;4.38;;;0.00;99.90;;;;;;5046996;28;20488;-86
2022/01/16 11:57:26;;;;;;;15.95;4.25;;;0.00;99.90;;;;;;5036344;28;20405;-86
2022/01/16 12:00:08;;;;;;;14.48;4.53;;;0.00;99.90;;;;;;5032938;28;20471;-86
2022/01/16 12:02:48;;;;;;;13.73;3.95;;;0.00;99.90;;;;;;5034123;28;20435;-85
2022/01/16 12:05:25;;;;;;;15.90;4.25;;;0.00;99.90;;;;;;5033891;28;20436;-86
2022/01/16 12:08:00;;;;;;;15.68;4.85;;;0.00;99.90;;;;;;5025392;28;20642;-85
2022/01/16 12:10:46;;;;;;;12.95;4.25;;;0.00;99.90;;;;;;5036306;28;20400;-87
2022/01/16 12:13:50;;;;;;;17.87;5.20;;;0.00;99.90;;;;;;5052397;28;20443;-86
2022/01/16 12:16:38;;;;;;;13.23;4.57;;;0.00;99.90;;;;;;5051178;28;20418;-86
2022/01/16 12:19:43;;;;;;;14.77;4.70;;;0.00;99.90;;;;;;5053885;28;20847;-85
2022/01/16 12:22:14;;;;;;;16.00;5.03;;;0.00;99.90;;;;;;5011647;28;21000;-86
2022/01/16 12:24:44;;;;;;;14.85;4.82;;;-0.10;99.90;;;;;;5027011;28;20434;-85
2022/01/16 12:27:21;;;;;;;20.63;6.00;;;-0.10;99.90;;;;;;5052315;28;20748;-86
2022/01/16 12:30:08;;;;;;;16.38;5.85;;;-0.10;99.90;;;;;;5035434;28;20471;-86
2022/01/16 12:32:54;;;;;;;15.13;5.83;;;-0.10;99.90;;;;;;5032371;28;20455;-86
2022/01/16 12:35:50;;;;;;;16.10;5.80;;;-0.10;99.90;;;;;;5015876;28;20432;-86
2022/01/16 12:38:18;;;;;;;19.02;6.25;;;-0.10;99.90;;;;;;5032186;28;20460;-85
2022/01/16 12:40:50;;;;;;;15.35;5.97;;;-0.10;99.90;;;;;;5015557;28;20389;-85
2022/01/16 12:43:33;;;;;;;17.20;5.50;;;-0.10;99.90;;;;;;5032093;28;20402;-85
2022/01/16 12:46:02;;;;;;;15.50;5.90;;;-0.10;99.90;;;;;;5032101;28;20432;-84
2022/01/16 12:48:31;;;;;;;15.70;5.90;;;-0.10;99.90;;;;;;5031967;28;20839;-85
2022/01/16 12:51:05;;;;;;;14.38;5.63;;;-0.10;99.90;;;;;;5031861;28;20401;-85
2022/01/16 12:53:44;;;;;;;15.35;5.63;;;-0.10;99.90;;;;;;5015702;28;20405;-85
2022/01/16 12:56:24;;;;;;;13.82;5.75;;;-0.10;99.90;;;;;;5032060;28;20386;-86
2022/01/16 12:59:09;;;;;;;12.77;5.50;;;-0.10;99.90;;;;;;5015426;28;20962;-85
2022/01/16 13:01:42;;;;;;;17.98;6.78;;;-0.10;99.90;;;;;;5031900;28;20398;-86
2022/01/16 13:04:31;;;;;;;17.70;6.95;;;-0.20;99.90;;;;;;5032110;28;20503;-85
2022/01/16 13:07:19;;;;;;;19.92;7.05;;;-0.20;99.90;;;;;;5044351;28;20825;-85
2022/01/16 13:09:46;;;;;;;17.08;7.18;;;-0.20;99.90;;;;;;5035135;28;20479;-85
2022/01/16 13:12:14;;;;;;;18.73;7.10;;;-0.20;99.90;;;;;;5033921;28;20446;-85
2022/01/16 13:14:43;;;;;;;17.98;7.43;;;-0.20;99.90;;;;;;5032689;28;20401;-85
2022/01/16 13:17:13;;;;;;;18.02;7.55;;;-0.20;99.90;;;;;;5048069;28;20389;-87
2022/01/16 13:19:52;;;;;;;19.63;8.55;;;-0.20;99.90;;;;;;5023043;28;20397;-85
2022/01/16 13:22:23;;;;;;;18.40;7.80;;;-0.20;99.90;;;;;;5032307;28;20397;-84
2022/01/16 13:24:53;;;;;;;17.77;7.50;;;-0.20;99.90;;;;;;5034704;28;20612;-85
2022/01/16 13:27:26;;;;;;;18.63;8.60;;;-0.30;99.90;;;;;;5047120;28;20409;-84
2022/01/16 13:30:17;;;;;;;15.77;8.20;;;-0.20;99.90;;;;;;5047924;28;20391;-85
2022/01/16 13:32:47;;;;;;;16.35;7.50;;;-0.20;99.90;;;;;;5029334;28;20409;-86
2022/01/16 13:35:25;;;;;;;15.13;7.47;;;-0.20;99.90;;;;;;5038351;28;20432;-87
2022/01/16 13:38:05;;;;;;;14.80;7.78;;;-0.20;99.90;;;;;;5026176;28;20499;-87
2022/01/16 13:40:40;;;;;;;17.00;7.93;;;-0.20;99.90;;;;;;5043575;28;20393;-85
2022/01/16 13:43:12;;;;;;;14.53;7.47;;;-0.20;99.90;;;;;;5048933;28;20967;-87
2022/01/16 13:45:49;;;;;;;17.25;8.20;;;-0.20;99.90;;;;;;5046809;28;20396;-86
2022/01/16 13:48:25;;;;;;;14.20;7.50;;;-0.20;99.90;;;;;;5045127;28;20388;-87